createdAt,value
2019-03-21T16:16:33.741Z,6.60
2019-03-21T16:21:33.694Z,5.50
2019-03-21T16:26:33.716Z,5.20
2019-03-21T16:31:33.734Z,5.60
2019-03-21T16:36:33.697Z,4.70
2019-03-21T16:41:33.703Z,4.30
2019-03-21T16:46:33.725Z,4.30
2019-03-21T16:51:33.700Z,4.20
2019-03-21T16:56:33.698Z,4.10
2019-03-21T17:01:33.735Z,4.00
2019-03-21T17:06:33.714Z,4.40
2019-03-21T17:11:33.706Z,4.30
2019-03-21T17:16:33.743Z,4.40
2019-03-21T17:21:33.701Z,4.70
2019-03-21T17:26:33.726Z,5.70
2019-03-21T17:31:33.727Z,6.70
2019-03-21T17:36:33.696Z,7.00
2019-03-21T17:41:33.690Z,5.30
2019-03-21T17:46:33.725Z,5.50
2019-03-21T17:51:33.700Z,10.90
2019-03-21T17:56:33.732Z,10.60
2019-03-21T18:01:33.720Z,13.60
2019-03-21T18:06:33.674Z,7.10
2019-03-21T18:11:33.713Z,5.10
2019-03-21T18:16:33.719Z,10.00
2019-03-21T18:21:33.694Z,8.10
2019-03-21T18:26:33.717Z,7.00
2019-03-21T18:31:33.697Z,6.40
2019-03-21T18:36:33.691Z,10.20
2019-03-21T18:41:33.737Z,6.20
2019-03-21T18:46:33.705Z,10.60
2019-03-21T18:51:33.700Z,8.00
2019-03-21T18:56:33.716Z,7.20
2019-03-21T19:01:33.711Z,6.70
2019-03-21T19:06:33.690Z,7.60
2019-03-21T19:11:33.721Z,6.00
2019-03-21T19:16:33.687Z,5.60
2019-03-21T19:21:33.758Z,9.20
2019-03-21T19:26:33.733Z,10.80
2019-03-21T19:31:33.683Z,10.10
2019-03-21T19:36:33.691Z,11.50
2019-03-21T19:41:33.717Z,11.60
2019-03-21T19:46:33.719Z,9.00
2019-03-21T19:51:33.687Z,9.20
2019-03-21T19:56:33.706Z,9.60
2019-03-21T20:01:33.717Z,11.70
2019-03-21T20:06:33.689Z,11.90
2019-03-21T20:11:33.696Z,14.40
2019-03-21T20:16:33.720Z,12.20
2019-03-21T20:21:33.687Z,14.80
2019-03-21T20:26:33.700Z,13.10
2019-03-21T20:31:33.700Z,14.40
2019-03-21T20:36:33.679Z,14.40
2019-03-21T20:41:33.712Z,16.40
2019-03-21T20:46:33.677Z,13.90
2019-03-21T20:51:33.657Z,13.20
2019-03-21T20:56:33.704Z,13.10
2019-03-21T21:01:33.711Z,14.60
2019-03-21T21:06:33.673Z,17.30
2019-03-21T21:11:35.168Z,14.80
2019-03-21T21:16:33.703Z,11.90
2019-03-21T21:21:33.705Z,10.40
2019-03-21T21:26:33.706Z,11.80
2019-03-21T21:31:33.700Z,11.50
2019-03-21T21:36:33.673Z,11.60
2019-03-21T21:41:33.674Z,13.40
2019-03-21T21:46:33.705Z,13.00
2019-03-21T21:51:33.657Z,14.40
2019-03-21T21:56:33.687Z,11.90
2019-03-21T22:01:33.720Z,13.10
2019-03-21T22:06:33.677Z,11.50
2019-03-21T22:11:33.692Z,10.60
2019-03-21T22:16:33.706Z,10.50
2019-03-21T22:21:33.673Z,10.60
2019-03-21T22:26:33.682Z,13.80
2019-03-21T22:31:33.665Z,11.50
2019-03-21T22:36:33.663Z,12.00
2019-03-21T22:41:33.729Z,15.10
2019-03-21T22:46:33.667Z,10.10
2019-03-21T22:51:33.660Z,12.90
2019-03-21T22:56:41.252Z,10.20
2019-03-21T23:01:33.677Z,9.60
2019-03-21T23:06:33.729Z,9.30
2019-03-21T23:11:33.692Z,10.70
2019-03-21T23:16:33.703Z,11.20
2019-03-21T23:21:33.676Z,13.30
2019-03-21T23:26:33.668Z,13.60
2019-03-21T23:31:33.682Z,10.80
2019-03-21T23:36:33.673Z,12.70
2019-03-21T23:41:33.658Z,13.50
2019-03-21T23:46:33.692Z,14.90
2019-03-21T23:51:33.648Z,12.40
2019-03-21T23:56:33.668Z,13.00
